createdAt,value
2023-01-25T00:01:22.905Z,-0.15
2023-01-25T00:04:03.255Z,-0.15
2023-01-25T00:06:36.267Z,-0.17
2023-01-25T00:09:03.584Z,-0.15
2023-01-25T00:11:37.288Z,-0.17
2023-01-25T00:14:12.226Z,-0.19
2023-01-25T00:16:46.465Z,-0.18
2023-01-25T00:19:19.221Z,-0.16
2023-01-25T00:21:46.382Z,-0.15
2023-01-25T00:24:21.330Z,-0.15
2023-01-25T00:26:48.155Z,-0.19
2023-01-25T00:29:21.224Z,-0.22
2023-01-25T00:32:06.097Z,-0.21
2023-01-25T00:34:51.275Z,-0.16
2023-01-25T00:37:35.308Z,-0.21
2023-01-25T00:40:08.313Z,-0.19
2023-01-25T00:42:41.297Z,-0.18
2023-01-25T00:45:17.291Z,-0.19
2023-01-25T00:47:43.917Z,-0.18
2023-01-25T00:50:11.281Z,-0.20
2023-01-25T00:52:44.265Z,-0.18
2023-01-25T00:55:11.171Z,-0.20
2023-01-25T00:57:44.279Z,-0.19
2023-01-25T01:00:11.707Z,-0.20
2023-01-25T01:02:45.251Z,-0.28
2023-01-25T01:05:18.747Z,-0.23
2023-01-25T01:07:52.332Z,-0.29
2023-01-25T01:10:19.177Z,-0.30
2023-01-25T01:12:52.232Z,-0.29
2023-01-25T01:15:18.883Z,-0.30
2023-01-25T01:17:52.253Z,-0.30
2023-01-25T01:20:21.687Z,-0.30
2023-01-25T01:22:55.364Z,-0.28
2023-01-25T01:25:28.362Z,-0.28
2023-01-25T01:27:55.231Z,-0.29
2023-01-25T01:30:28.272Z,-0.31
2023-01-25T01:33:01.411Z,-0.32
2023-01-25T01:35:29.859Z,-0.32
2023-01-25T01:37:56.636Z,-0.34
2023-01-25T01:40:31.363Z,-0.33
2023-01-25T01:43:03.796Z,-0.36
2023-01-25T01:45:56.380Z,-0.37
2023-01-25T01:48:31.178Z,-0.37
2023-01-25T01:51:10.349Z,-0.38
2023-01-25T01:53:38.970Z,-0.37
2023-01-25T01:56:17.383Z,-0.37
2023-01-25T01:58:46.376Z,-0.40
2023-01-25T02:01:19.363Z,-0.39
2023-01-25T02:04:17.279Z,-0.40
2023-01-25T02:06:58.304Z,-0.38
2023-01-25T02:09:35.309Z,-0.39
2023-01-25T02:12:09.344Z,-0.45
2023-01-25T02:14:40.528Z,-0.44
2023-01-25T02:17:14.271Z,-0.47
2023-01-25T02:19:54.304Z,-0.44
2023-01-25T02:22:37.323Z,-0.43
2023-01-25T02:25:19.321Z,-0.42
2023-01-25T02:28:00.315Z,-0.49
2023-01-25T02:30:27.245Z,-0.46
2023-01-25T02:32:53.989Z,-0.47
2023-01-25T02:35:43.295Z,-0.47
2023-01-25T02:38:13.319Z,-0.46
2023-01-25T02:41:02.249Z,-0.43
2023-01-25T02:43:39.324Z,-0.46
2023-01-25T02:46:25.361Z,-0.47
2023-01-25T02:48:52.371Z,-0.48
2023-01-25T02:51:33.336Z,-0.50
2023-01-25T02:54:01.398Z,-0.48
2023-01-25T02:56:36.326Z,-0.49
2023-01-25T02:59:05.899Z,-0.52
2023-01-25T03:01:40.376Z,-0.54
2023-01-25T03:04:13.705Z,-0.54
2023-01-25T03:06:47.349Z,-0.57
2023-01-25T03:09:13.971Z,-0.54
2023-01-25T03:11:47.316Z,-0.55
2023-01-25T03:14:20.290Z,-0.54
2023-01-25T03:16:53.304Z,-0.56
2023-01-25T03:19:19.917Z,-0.57
2023-01-25T03:21:53.280Z,-0.62
2023-01-25T03:24:26.287Z,-0.62
2023-01-25T03:27:11.036Z,-0.63
2023-01-25T03:29:45.281Z,-0.65
2023-01-25T03:32:25.317Z,-0.67
2023-01-25T03:34:58.413Z,-0.72
2023-01-25T03:37:30.124Z,-0.66
2023-01-25T03:40:04.349Z,-0.66
2023-01-25T03:42:31.089Z,-0.66
2023-01-25T03:45:04.362Z,-0.68
2023-01-25T03:47:31.317Z,-0.67
2023-01-25T03:50:04.411Z,-0.67
2023-01-25T03:52:38.306Z,-0.70
2023-01-25T03:55:12.350Z,-0.67
2023-01-25T03:57:39.164Z,-0.67
2023-01-25T04:00:13.323Z,-0.65
2023-01-25T16:53:36.827Z,-1.65
2023-01-25T16:56:03.548Z,-1.69
2023-01-25T16:58:36.815Z,-1.74
2023-01-25T17:01:09.128Z,-1.76
2023-01-25T17:03:42.727Z,-1.74
2023-01-25T17:06:25.799Z,-1.73
2023-01-25T17:08:54.955Z,-1.76
2023-01-25T17:11:29.784Z,-1.79
2023-01-25T17:13:59.517Z,-1.81
2023-01-25T17:16:29.142Z,-1.82
2023-01-25T17:19:04.826Z,-1.86
2023-01-25T17:21:32.984Z,-1.83
2023-01-25T17:24:07.857Z,-1.86
2023-01-25T17:26:34.998Z,-1.91
2023-01-25T17:29:09.801Z,-1.85
2023-01-25T17:31:36.722Z,-1.88
2023-01-25T17:34:08.297Z,-1.88
2023-01-25T17:36:41.763Z,-1.88
2023-01-25T17:39:14.734Z,-1.85
2023-01-25T17:41:46.309Z,-1.88
2023-01-25T17:44:20.762Z,-1.87
2023-01-25T17:46:48.500Z,-1.87
2023-01-25T17:49:25.753Z,-1.88
2023-01-25T17:51:58.846Z,-1.90
2023-01-25T17:54:32.301Z,-1.89
2023-01-25T17:57:05.791Z,-1.96
2023-01-25T17:59:38.870Z,-1.89
2023-01-25T18:02:06.645Z,-1.89
2023-01-25T18:04:40.809Z,-1.87
2023-01-25T18:07:07.418Z,-1.86
2023-01-25T18:09:35.940Z,-1.93
2023-01-25T18:12:08.870Z,-1.92
2023-01-25T18:14:35.555Z,-1.90
2023-01-25T18:17:09.949Z,-1.93
2023-01-25T18:19:36.929Z,-1.93
2023-01-25T18:22:10.783Z,-1.94
2023-01-25T18:24:37.716Z,-1.96
2023-01-25T18:27:07.860Z,-1.96
2023-01-25T18:30:01.831Z,-1.96
2023-01-25T18:32:30.652Z,-1.98
2023-01-25T18:35:03.798Z,-1.99
2023-01-25T18:37:35.917Z,-2.00
2023-01-25T18:40:08.829Z,-2.00
2023-01-25T18:42:35.462Z,-2.01
2023-01-25T18:45:09.160Z,-2.05
2023-01-25T18:47:36.142Z,-2.05
2023-01-25T18:50:09.858Z,-2.08
2023-01-25T18:52:42.853Z,-2.06
2023-01-25T18:55:15.805Z,-2.04
2023-01-25T18:57:55.838Z,-2.02
2023-01-25T19:00:28.860Z,-2.01
2023-01-25T19:02:55.587Z,-2.00
2023-01-25T19:05:28.814Z,-2.06
2023-01-25T19:08:01.784Z,-1.97
2023-01-25T19:10:34.770Z,-1.99
2023-01-25T19:13:07.817Z,-1.97
2023-01-25T19:15:34.536Z,-1.98
2023-01-25T19:18:07.921Z,-1.96
2023-01-25T19:20:40.833Z,-1.97
2023-01-25T19:23:14.852Z,-1.96
2023-01-25T19:25:41.527Z,-1.96
2023-01-25T19:28:14.816Z,-1.93
2023-01-25T19:30:41.493Z,-1.94
2023-01-25T19:33:14.870Z,-1.93
2023-01-25T19:35:47.827Z,-1.92
2023-01-25T19:38:20.851Z,-1.91
2023-01-25T19:40:53.822Z,-1.94
2023-01-25T19:43:20.632Z,-1.91
2023-01-25T19:45:53.834Z,-1.89
2023-01-25T19:48:20.678Z,-1.90
2023-01-25T19:50:53.845Z,-1.97
2023-01-25T19:53:40.855Z,-1.99
2023-01-25T19:56:16.191Z,-2.00
2023-01-25T19:58:48.063Z,-2.00
2023-01-25T20:01:29.301Z,-2.01
2023-01-25T20:04:07.859Z,-2.00
2023-01-25T20:06:41.819Z,-2.03
2023-01-25T20:09:11.353Z,-2.05
2023-01-25T20:11:44.866Z,-2.05
2023-01-25T20:14:20.842Z,-2.10
2023-01-25T20:16:58.844Z,-2.04
2023-01-25T20:19:25.668Z,-2.03
2023-01-25T20:21:52.567Z,-2.03
2023-01-25T20:24:32.876Z,-2.01
2023-01-25T20:27:05.810Z,-2.04
2023-01-25T20:29:32.508Z,-2.06
2023-01-25T20:32:05.973Z,-2.05
2023-01-25T20:34:38.875Z,-2.06
2023-01-25T20:37:05.656Z,-2.11
2023-01-25T20:39:38.831Z,-2.07
2023-01-25T20:42:05.572Z,-2.09
2023-01-25T20:44:38.815Z,-2.11
2023-01-25T20:47:05.588Z,-2.17
2023-01-25T20:49:34.620Z,-2.19
2023-01-25T20:52:07.895Z,-2.20
2023-01-25T20:54:44.034Z,-2.17
2023-01-25T20:57:16.825Z,-2.17
2023-01-25T20:59:49.840Z,-2.16
2023-01-25T21:02:22.923Z,-2.16
2023-01-25T21:04:49.603Z,-2.18
2023-01-25T21:07:22.848Z,-2.18
2023-01-25T21:09:49.580Z,-2.16
2023-01-25T21:12:22.842Z,-2.16
2023-01-25T21:14:50.207Z,-2.20
2023-01-25T21:17:22.860Z,-2.19
2023-01-25T21:19:49.417Z,-2.21
2023-01-25T21:22:22.911Z,-2.12
2023-01-25T21:24:55.882Z,-2.15
2023-01-25T21:27:29.835Z,-2.15
2023-01-25T21:29:57.333Z,-2.18
2023-01-25T21:32:30.905Z,-2.16
2023-01-25T21:35:03.939Z,-2.21
2023-01-25T21:37:30.676Z,-2.32
2023-01-25T21:40:03.964Z,-2.27
2023-01-25T21:42:32.402Z,-2.23
2023-01-25T21:45:24.913Z,-2.34
2023-01-25T21:47:51.615Z,-2.24
2023-01-25T21:50:43.808Z,-2.26
2023-01-25T21:53:17.269Z,-2.24
2023-01-25T21:56:02.019Z,-2.25
2023-01-25T21:58:28.647Z,-2.20
2023-01-25T22:01:13.290Z,-2.21
2023-01-25T22:03:40.068Z,-2.21
2023-01-25T22:06:13.853Z,-2.16
2023-01-25T22:08:40.505Z,-2.15
2023-01-25T22:11:14.919Z,-2.22
2023-01-25T22:13:48.019Z,-2.22
2023-01-25T22:16:15.182Z,-2.29
2023-01-25T22:18:49.902Z,-2.18
2023-01-25T22:21:22.099Z,-2.18
2023-01-25T22:23:55.982Z,-2.17
2023-01-25T22:26:30.926Z,-2.16
2023-01-25T22:29:05.836Z,-2.15
2023-01-25T22:31:32.870Z,-2.14
2023-01-25T22:34:07.021Z,-2.13
2023-01-25T22:36:34.055Z,-2.13
2023-01-25T22:39:00.883Z,-2.13
2023-01-25T22:41:39.915Z,-2.23
2023-01-25T22:44:12.878Z,-2.16
2023-01-25T22:46:45.898Z,-2.23
2023-01-25T22:49:18.854Z,-2.21
2023-01-25T22:51:51.869Z,-2.15
2023-01-25T22:54:31.892Z,-2.14
2023-01-25T22:57:05.930Z,-2.14
2023-01-25T22:59:32.647Z,-2.14
2023-01-25T23:02:05.857Z,-2.15
2023-01-25T23:04:38.865Z,-2.13
2023-01-25T23:07:19.160Z,-2.12
2023-01-25T23:09:48.494Z,-2.10
2023-01-25T23:12:22.026Z,-2.10
2023-01-25T23:14:51.783Z,-2.15
2023-01-25T23:17:48.829Z,-2.15
2023-01-25T23:20:15.531Z,-2.14
2023-01-25T23:22:48.972Z,-2.12
2023-01-25T23:25:15.925Z,-2.10
2023-01-25T23:27:48.955Z,-2.13
2023-01-25T23:30:16.128Z,-2.12
2023-01-25T23:32:52.891Z,-2.12
2023-01-25T23:35:26.908Z,-2.17
2023-01-25T23:37:59.924Z,-2.12
2023-01-25T23:40:32.865Z,-2.14
2023-01-25T23:42:59.439Z,-2.10
2023-01-25T23:45:32.937Z,-2.11
2023-01-25T23:47:59.542Z,-2.11
2023-01-25T23:50:32.885Z,-2.11
2023-01-25T23:53:19.919Z,-2.11
2023-01-25T23:56:09.923Z,-2.10
2023-01-25T23:58:38.381Z,-2.27
